Time;durP1;ratioP1;P1;durP2;ratioP2;P2;SDS_P1;SDS_P2;PMS_P1;PMS_P2;Temp;Humidity;BMP_temperature;BMP_pressure;BME280_temperature;BME280_humidity;BME280_pressure;Samples;Min_cycle;Max_cycle;Signal;HPM_P1;HPM_P2
2023/12/09 00:00:54;;;;;;;56.47;2.70;;;;;;;;;;5093683;28;20456;-75
2023/12/09 00:03:21;;;;;;;56.87;2.90;;;;;;;;;;5093331;28;20474;-75
2023/12/09 00:05:49;;;;;;;56.30;3.20;;;;;;;;;;5093332;28;20446;-75
2023/12/09 00:08:17;;;;;;;55.80;2.70;;;;;;;;;;5093475;28;20451;-75
2023/12/09 00:10:44;;;;;;;55.90;2.70;;;;;;;;;;5085357;28;20449;-74
2023/12/09 00:13:11;;;;;;;56.20;2.93;;;;;;;;;;5093226;28;20470;-75
2023/12/09 00:15:38;;;;;;;55.87;2.70;;;;;;;;;;5093111;28;20489;-75
2023/12/09 00:18:05;;;;;;;57.87;3.50;;;;;;;;;;5093098;28;20941;-74
2023/12/09 00:20:32;;;;;;;55.67;2.80;;;;;;;;;;5093127;28;20457;-75
2023/12/09 00:23:01;;;;;;;56.77;3.90;;;;;;;;;;5093183;28;20471;-75
2023/12/09 00:25:28;;;;;;;56.00;3.13;;;;;;;;;;5092978;28;20448;-75
2023/12/09 00:27:55;;;;;;;56.67;3.60;;;;;;;;;;5093227;28;20452;-75
2023/12/09 00:30:22;;;;;;;56.10;2.90;;;;;;;;;;5092942;28;20833;-75
2023/12/09 00:32:49;;;;;;;57.23;3.00;;;;;;;;;;5092750;28;20469;-75
2023/12/09 00:35:16;;;;;;;56.10;3.00;;;;;;;;;;5092548;28;21013;-74
2023/12/09 00:37:44;;;;;;;56.53;3.33;;;;;;;;;;5093183;28;20452;-75
2023/12/09 00:40:13;;;;;;;55.80;2.63;;;;;;;;;;5092849;28;20962;-75
2023/12/09 00:42:40;;;;;;;56.20;3.13;;;;;;;;;;5092893;28;20470;-75
2023/12/09 00:45:07;;;;;;;56.17;3.43;;;;;;;;;;5092658;28;20470;-75
2023/12/09 00:47:35;;;;;;;55.97;3.53;;;;;;;;;;5092124;28;20839;-74
2023/12/09 00:50:02;;;;;;;56.40;2.57;;;;;;;;;;5092195;28;20443;-75
2023/12/09 00:52:29;;;;;;;56.20;3.33;;;;;;;;;;5092554;28;20833;-75
2023/12/09 00:54:56;;;;;;;58.63;3.10;;;;;;;;;;5092506;28;20494;-75
2023/12/09 00:57:25;;;;;;;56.10;3.50;;;;;;;;;;5092694;28;20449;-75
2023/12/09 00:59:52;;;;;;;55.87;2.63;;;;;;;;;;5092648;28;20449;-75
2023/12/09 01:02:19;;;;;;;56.20;3.07;;;;;;;;;;5092105;28;20496;-75
2023/12/09 01:04:46;;;;;;;56.20;3.07;;;;;;;;;;5092445;28;20444;-75
2023/12/09 01:07:13;;;;;;;56.40;2.67;;;;;;;;;;5092601;28;20452;-75
2023/12/09 01:09:40;;;;;;;55.87;3.00;;;;;;;;;;5092178;28;21169;-75
2023/12/09 01:12:08;;;;;;;56.57;4.10;;;;;;;;;;5092125;28;20449;-75
2023/12/09 01:14:36;;;;;;;55.57;2.60;;;;;;;;;;5091869;28;20449;-75
2023/12/09 01:17:03;;;;;;;56.80;3.03;;;;;;;;;;5092355;28;20480;-75
2023/12/09 01:19:30;;;;;;;56.00;2.90;;;;;;;;;;5092275;28;20555;-75
2023/12/09 01:21:57;;;;;;;56.07;3.30;;;;;;;;;;5092306;28;20813;-75
2023/12/09 01:24:24;;;;;;;56.07;3.67;;;;;;;;;;5091998;28;20441;-74
2023/12/09 01:26:52;;;;;;;56.10;3.20;;;;;;;;;;5091851;28;20438;-75
2023/12/09 01:29:19;;;;;;;55.77;2.70;;;;;;;;;;5091892;28;20456;-75
2023/12/09 01:31:47;;;;;;;56.23;3.43;;;;;;;;;;5092166;28;20885;-75
2023/12/09 01:34:14;;;;;;;55.97;3.07;;;;;;;;;;5091843;28;20449;-75
2023/12/09 01:36:41;;;;;;;55.70;2.57;;;;;;;;;;5091597;28;20487;-75
2023/12/09 01:39:09;;;;;;;56.40;4.00;;;;;;;;;;5091750;28;20442;-75
2023/12/09 01:41:37;;;;;;;56.17;2.93;;;;;;;;;;5091495;28;20458;-75
2023/12/09 01:44:04;;;;;;;55.97;2.70;;;;;;;;;;5091597;28;20482;-75
2023/12/09 01:46:32;;;;;;;57.70;3.30;;;;;;;;;;5091358;28;20536;-75
2023/12/09 01:49:01;;;;;;;55.97;2.77;;;;;;;;;;5091926;28;20836;-75
2023/12/09 01:51:28;;;;;;;56.70;3.60;;;;;;;;;;5091382;28;20457;-75
2023/12/09 01:53:55;;;;;;;56.00;2.70;;;;;;;;;;5091501;28;20960;-75
2023/12/09 01:56:23;;;;;;;56.87;2.97;;;;;;;;;;5091356;28;20481;-75
2023/12/09 01:58:50;;;;;;;56.50;3.23;;;;;;;;;;5091573;28;20445;-75
2023/12/09 02:01:18;;;;;;;55.97;2.80;;;;;;;;;;5091142;28;20441;-75
2023/12/09 02:03:45;;;;;;;56.50;4.37;;;;;;;;;;5091395;28;20908;-75
2023/12/09 02:06:13;;;;;;;57.37;3.93;;;;;;;;;;5091336;28;20446;-75
2023/12/09 02:08:41;;;;;;;55.90;2.60;;;;;;;;;;5091197;28;20458;-75
2023/12/09 02:11:13;;;;;;;56.50;3.90;;;;;;;;;;5091466;28;20453;-75
2023/12/09 02:13:42;;;;;;;56.37;3.03;;;;;;;;;;5091287;28;20508;-75
2023/12/09 02:16:12;;;;;;;56.07;2.80;;;;;;;;;;5090676;28;21024;-76
2023/12/09 02:18:41;;;;;;;55.77;3.37;;;;;;;;;;5091037;28;20476;-75
2023/12/09 02:21:08;;;;;;;55.80;2.50;;;;;;;;;;5091299;28;20450;-75
2023/12/09 02:23:36;;;;;;;55.90;2.90;;;;;;;;;;5090821;28;20831;-75
2023/12/09 02:26:06;;;;;;;56.00;2.83;;;;;;;;;;5090477;28;20452;-75
2023/12/09 02:28:36;;;;;;;56.30;3.67;;;;;;;;;;5091218;28;20449;-75
2023/12/09 02:31:09;;;;;;;56.77;4.20;;;;;;;;;;5090952;28;20448;-76
2023/12/09 02:33:36;;;;;;;55.87;2.70;;;;;;;;;;5091047;28;20478;-75
2023/12/09 02:36:05;;;;;;;56.07;3.07;;;;;;;;;;5090953;28;20489;-75
2023/12/09 02:38:32;;;;;;;55.90;2.67;;;;;;;;;;5090940;28;20450;-75
2023/12/09 02:41:01;;;;;;;56.00;3.00;;;;;;;;;;5090874;28;20450;-75
2023/12/09 02:43:28;;;;;;;56.83;3.70;;;;;;;;;;5090518;28;20548;-75
2023/12/09 02:45:55;;;;;;;56.57;3.43;;;;;;;;;;5090677;28;20952;-75
2023/12/09 02:48:23;;;;;;;56.50;3.13;;;;;;;;;;5091058;28;20453;-75
2023/12/09 02:50:51;;;;;;;55.97;2.90;;;;;;;;;;5090897;28;20952;-75
2023/12/09 02:53:18;;;;;;;55.83;2.70;;;;;;;;;;5090739;28;20465;-75
2023/12/09 02:55:45;;;;;;;56.80;3.23;;;;;;;;;;5090620;28;20486;-74
2023/12/09 02:58:15;;;;;;;56.77;3.23;;;;;;;;;;5090709;28;20549;-75
2023/12/09 03:00:42;;;;;;;55.47;2.63;;;;;;;;;;5091178;28;20544;-75
2023/12/09 03:03:09;;;;;;;55.50;2.20;;;;;;;;;;5090733;28;20472;-75
2023/12/09 03:05:36;;;;;;;55.80;2.93;;;;;;;;;;5090535;28;20937;-75
2023/12/09 03:08:03;;;;;;;55.67;2.70;;;;;;;;;;5091381;28;20793;-75
2023/12/09 03:10:30;;;;;;;55.70;2.53;;;;;;;;;;5091025;28;20461;-75
2023/12/09 03:12:57;;;;;;;56.30;4.00;;;;;;;;;;5094169;28;20559;-75
2023/12/09 03:15:25;;;;;;;56.07;3.00;;;;;;;;;;5095200;28;20463;-75
2023/12/09 03:17:53;;;;;;;57.03;3.63;;;;;;;;;;5094540;28;20453;-75
2023/12/09 03:20:20;;;;;;;56.30;3.20;;;;;;;;;;5094776;28;20814;-75
2023/12/09 03:22:47;;;;;;;55.67;2.50;;;;;;;;;;5093983;28;20473;-75
2023/12/09 03:25:15;;;;;;;56.70;3.10;;;;;;;;;;5094051;28;20812;-75
2023/12/09 03:27:42;;;;;;;55.87;2.67;;;;;;;;;;5094054;28;20453;-75
2023/12/09 03:30:09;;;;;;;56.00;3.17;;;;;;;;;;5094369;28;20459;-75
2023/12/09 03:32:39;;;;;;;55.67;2.70;;;;;;;;;;5094009;28;20468;-75
2023/12/09 03:35:07;;;;;;;55.57;2.43;;;;;;;;;;5093986;28;20536;-75
2023/12/09 03:37:34;;;;;;;56.10;3.27;;;;;;;;;;5093784;28;20572;-74
2023/12/09 03:40:01;;;;;;;55.57;2.50;;;;;;;;;;5094229;28;20464;-75
2023/12/09 03:42:28;;;;;;;56.93;3.10;;;;;;;;;;5093774;28;21011;-75
2023/12/09 03:44:55;;;;;;;55.87;2.70;;;;;;;;;;5093537;28;20458;-75
2023/12/09 03:47:22;;;;;;;55.57;2.33;;;;;;;;;;5093887;28;20513;-75
2023/12/09 03:49:50;;;;;;;55.63;2.47;;;;;;;;;;5093967;28;20453;-74
2023/12/09 03:52:17;;;;;;;55.70;2.60;;;;;;;;;;5093468;28;20472;-74
2023/12/09 03:54:45;;;;;;;58.67;3.13;;;;;;;;;;5093022;28;20449;-74
2023/12/09 03:57:13;;;;;;;55.70;2.40;;;;;;;;;;5093585;28;20482;-74
2023/12/09 03:59:40;;;;;;;55.83;2.93;;;;;;;;;;5093682;28;20457;-74
2023/12/09 04:02:07;;;;;;;55.90;2.90;;;;;;;;;;5093616;28;20546;-74
2023/12/09 04:04:34;;;;;;;60.70;3.67;;;;;;;;;;5093215;28;20445;-74
2023/12/09 04:07:03;;;;;;;56.97;4.17;;;;;;;;;;5093445;28;20452;-74
2023/12/09 04:09:30;;;;;;;56.50;3.53;;;;;;;;;;5093840;28;20463;-74
2023/12/09 04:11:57;;;;;;;56.63;3.50;;;;;;;;;;5093016;28;20461;-74
2023/12/09 04:14:25;;;;;;;56.37;3.03;;;;;;;;;;5093282;28;20454;-75
2023/12/09 04:16:52;;;;;;;56.40;4.30;;;;;;;;;;5093067;28;20484;-74
2023/12/09 04:19:19;;;;;;;56.40;3.23;;;;;;;;;;5093189;28;20945;-74
2023/12/09 04:21:46;;;;;;;55.87;2.87;;;;;;;;;;5093139;28;20833;-75
2023/12/09 04:24:15;;;;;;;55.90;2.63;;;;;;;;;;5093433;28;20821;-74
2023/12/09 04:26:42;;;;;;;55.90;2.70;;;;;;;;;;5093305;28;20441;-74
2023/12/09 04:29:09;;;;;;;55.90;2.87;;;;;;;;;;5093073;28;20446;-74
2023/12/09 04:31:36;;;;;;;56.20;3.53;;;;;;;;;;5092854;28;20445;-74
2023/12/09 04:34:03;;;;;;;56.30;3.60;;;;;;;;;;5093268;28;20465;-74
2023/12/09 04:36:30;;;;;;;56.50;4.17;;;;;;;;;;5093118;28;20501;-75
2023/12/09 04:38:57;;;;;;;57.27;4.30;;;;;;;;;;5092893;28;20445;-74
2023/12/09 04:41:25;;;;;;;55.87;2.87;;;;;;;;;;5092832;28;20446;-74
2023/12/09 04:43:52;;;;;;;56.60;4.20;;;;;;;;;;5092737;28;20457;-74
2023/12/09 04:46:20;;;;;;;56.50;3.33;;;;;;;;;;5092417;28;20437;-75
2023/12/09 04:48:47;;;;;;;55.97;3.07;;;;;;;;;;5093109;28;20441;-74
2023/12/09 04:51:14;;;;;;;55.93;2.60;;;;;;;;;;5092870;28;20447;-75
2023/12/09 04:53:41;;;;;;;56.27;3.67;;;;;;;;;;5092617;28;20464;-74
2023/12/09 04:56:09;;;;;;;56.50;3.40;;;;;;;;;;5092356;28;20484;-74
2023/12/09 04:58:37;;;;;;;56.00;3.13;;;;;;;;;;5092858;28;20472;-74
2023/12/09 05:01:04;;;;;;;58.07;3.63;;;;;;;;;;5092805;28;20459;-74
2023/12/09 05:03:32;;;;;;;55.80;2.50;;;;;;;;;;5092338;28;20477;-74
2023/12/09 05:06:00;;;;;;;55.80;2.50;;;;;;;;;;5092253;28;20443;-74
2023/12/09 05:08:27;;;;;;;55.90;2.83;;;;;;;;;;5092541;28;20449;-74
2023/12/09 05:10:54;;;;;;;56.20;3.20;;;;;;;;;;5092366;28;20818;-74
2023/12/09 05:13:21;;;;;;;56.00;3.00;;;;;;;;;;5091939;28;20469;-74
2023/12/09 05:15:50;;;;;;;55.90;2.70;;;;;;;;;;5092122;28;20449;-74
2023/12/09 05:18:17;;;;;;;55.77;2.90;;;;;;;;;;5091992;28;21009;-74
2023/12/09 05:20:45;;;;;;;55.77;2.80;;;;;;;;;;5092326;28;20502;-74
2023/12/09 05:23:12;;;;;;;55.60;2.60;;;;;;;;;;5091822;28;20468;-74
2023/12/09 05:25:39;;;;;;;55.97;2.80;;;;;;;;;;5091703;28;20543;-74
2023/12/09 05:28:06;;;;;;;55.90;3.13;;;;;;;;;;5091897;28;20444;-74
2023/12/09 05:30:33;;;;;;;55.80;2.67;;;;;;;;;;5092149;28;20836;-73
2023/12/09 05:33:03;;;;;;;56.00;3.23;;;;;;;;;;5091843;28;20468;-74
2023/12/09 05:35:30;;;;;;;56.00;2.80;;;;;;;;;;5090740;28;20449;-74
2023/12/09 05:37:57;;;;;;;59.80;3.37;;;;;;;;;;5091638;28;20511;-75
2023/12/09 05:40:24;;;;;;;56.03;3.20;;;;;;;;;;5092143;28;20454;-74
2023/12/09 05:42:51;;;;;;;55.73;3.03;;;;;;;;;;5091548;28;20465;-74
2023/12/09 05:45:18;;;;;;;55.70;3.00;;;;;;;;;;5091533;28;20449;-74
2023/12/09 05:47:46;;;;;;;55.70;2.60;;;;;;;;;;5091723;28;20454;-74
2023/12/09 05:50:14;;;;;;;56.50;3.13;;;;;;;;;;5091289;28;20967;-74
2023/12/09 05:52:42;;;;;;;55.77;2.90;;;;;;;;;;5091724;28;20478;-74
2023/12/09 05:55:09;;;;;;;55.97;3.30;;;;;;;;;;5091284;28;20457;-74
2023/12/09 05:57:36;;;;;;;55.90;2.73;;;;;;;;;;5091554;28;20485;-73
2023/12/09 06:00:05;;;;;;;55.80;3.03;;;;;;;;;;5091677;28;20471;-74
2023/12/09 06:02:32;;;;;;;57.43;3.53;;;;;;;;;;5091234;28;20479;-75
2023/12/09 06:04:59;;;;;;;55.70;2.80;;;;;;;;;;5091162;28;20442;-74
2023/12/09 06:07:27;;;;;;;55.57;2.70;;;;;;;;;;5091343;28;20968;-74
2023/12/09 06:09:54;;;;;;;55.67;2.90;;;;;;;;;;5091086;28;20453;-74
2023/12/09 06:12:21;;;;;;;56.20;3.20;;;;;;;;;;5091201;28;20475;-74
2023/12/09 06:14:48;;;;;;;56.10;2.90;;;;;;;;;;5091202;28;20837;-74
2023/12/09 06:17:16;;;;;;;55.73;3.10;;;;;;;;;;5091013;28;20485;-74
2023/12/09 06:19:43;;;;;;;56.20;3.53;;;;;;;;;;5090702;28;20460;-74
2023/12/09 06:22:10;;;;;;;55.90;2.67;;;;;;;;;;5090864;28;20464;-74
2023/12/09 06:24:38;;;;;;;55.90;3.07;;;;;;;;;;5091129;28;20833;-74
2023/12/09 06:27:05;;;;;;;56.07;3.03;;;;;;;;;;5091003;28;20446;-74
2023/12/09 06:29:34;;;;;;;56.10;3.30;;;;;;;;;;5091082;28;20727;-74
2023/12/09 06:32:02;;;;;;;56.30;3.47;;;;;;;;;;5091160;28;20494;-74
2023/12/09 06:34:29;;;;;;;56.27;3.47;;;;;;;;;;5091399;28;20529;-74
2023/12/09 06:36:56;;;;;;;57.30;3.57;;;;;;;;;;5090649;28;21030;-74
2023/12/09 06:39:23;;;;;;;55.73;2.90;;;;;;;;;;5091243;28;20449;-74
2023/12/09 06:41:52;;;;;;;55.67;3.00;;;;;;;;;;5090768;28;20453;-74
2023/12/09 06:44:19;;;;;;;56.00;3.47;;;;;;;;;;5091232;28;20445;-74
2023/12/09 06:46:46;;;;;;;56.07;3.17;;;;;;;;;;5093494;28;20447;-73
2023/12/09 06:49:13;;;;;;;55.73;2.97;;;;;;;;;;5094902;28;20455;-74
2023/12/09 06:51:42;;;;;;;56.27;2.83;;;;;;;;;;5094820;28;20447;-75
2023/12/09 06:54:10;;;;;;;55.67;2.67;;;;;;;;;;5095026;28;20478;-73
2023/12/09 06:56:37;;;;;;;56.10;3.23;;;;;;;;;;5094803;28;20448;-73
2023/12/09 06:59:06;;;;;;;55.87;3.33;;;;;;;;;;5094935;28;20447;-74
2023/12/09 07:01:33;;;;;;;56.07;2.67;;;;;;;;;;5095117;28;20447;-74
2023/12/09 07:04:00;;;;;;;55.80;2.40;;;;;;;;;;5094347;28;20465;-73
2023/12/09 07:06:28;;;;;;;55.90;2.73;;;;;;;;;;5094646;28;20975;-73
2023/12/09 07:08:57;;;;;;;55.63;2.50;;;;;;;;;;5094552;28;20445;-74
2023/12/09 07:11:24;;;;;;;57.17;3.77;;;;;;;;;;5094384;28;20846;-74
2023/12/09 07:13:51;;;;;;;55.87;2.97;;;;;;;;;;5094474;28;20460;-74
2023/12/09 07:16:20;;;;;;;55.70;2.50;;;;;;;;;;5094320;28;20451;-73
2023/12/09 07:18:48;;;;;;;55.80;2.97;;;;;;;;;;5094685;28;20937;-74
2023/12/09 07:21:15;;;;;;;55.70;2.47;;;;;;;;;;5094184;28;20450;-74
2023/12/09 07:23:43;;;;;;;55.77;2.60;;;;;;;;;;5094439;28;20464;-74
2023/12/09 07:26:12;;;;;;;55.90;2.90;;;;;;;;;;5094216;28;20774;-74
2023/12/09 07:28:39;;;;;;;55.80;2.67;;;;;;;;;;5094295;28;20840;-74
2023/12/09 07:31:06;;;;;;;56.00;2.90;;;;;;;;;;5086072;28;20449;-74
2023/12/09 07:33:34;;;;;;;55.90;2.80;;;;;;;;;;5094373;28;20471;-74
2023/12/09 07:36:01;;;;;;;55.70;2.67;;;;;;;;;;5094058;28;20446;-74
2023/12/09 07:38:29;;;;;;;55.77;2.67;;;;;;;;;;5093948;28;20956;-74
2023/12/09 07:40:56;;;;;;;55.77;2.73;;;;;;;;;;5093639;28;20461;-74
2023/12/09 07:43:23;;;;;;;55.67;2.90;;;;;;;;;;5093694;28;20472;-75
2023/12/09 07:45:50;;;;;;;55.67;2.60;;;;;;;;;;5093989;28;20451;-74
2023/12/09 07:48:17;;;;;;;55.40;2.53;;;;;;;;;;5094023;28;20441;-74
2023/12/09 07:50:45;;;;;;;56.33;3.30;;;;;;;;;;5094042;28;20453;-75
2023/12/09 07:53:13;;;;;;;55.70;2.70;;;;;;;;;;5093720;28;20477;-74
2023/12/09 07:55:40;;;;;;;55.67;2.63;;;;;;;;;;5093665;28;20836;-74
2023/12/09 07:58:07;;;;;;;55.77;3.00;;;;;;;;;;5092764;28;20488;-74
2023/12/09 08:00:35;;;;;;;56.97;4.00;;;;;;;;;;5093876;28;20450;-75
2023/12/09 08:03:05;;;;;;;56.53;4.33;;;;;;;;;;5093706;28;20501;-75
2023/12/09 08:05:32;;;;;;;55.90;2.80;;;;;;;;;;5093493;28;20449;-75
2023/12/09 08:08:01;;;;;;;55.53;2.60;;;;;;;;;;5093473;28;20499;-75
2023/12/09 08:10:28;;;;;;;55.80;2.73;;;;;;;;;;5093397;28;20449;-74
2023/12/09 08:12:56;;;;;;;55.77;2.63;;;;;;;;;;5093339;28;20470;-73
2023/12/09 08:15:23;;;;;;;55.57;2.40;;;;;;;;;;5093452;28;20452;-74
2023/12/09 08:17:50;;;;;;;56.10;2.83;;;;;;;;;;5093271;28;20498;-73
2023/12/09 08:20:17;;;;;;;55.60;2.80;;;;;;;;;;5093435;28;20448;-74
2023/12/09 08:22:44;;;;;;;55.80;2.80;;;;;;;;;;5093215;28;20469;-74
2023/12/09 08:25:12;;;;;;;55.90;3.27;;;;;;;;;;5093016;28;20446;-74
2023/12/09 08:27:40;;;;;;;55.83;2.77;;;;;;;;;;5093336;28;20450;-73
2023/12/09 08:30:10;;;;;;;56.70;4.23;;;;;;;;;;5093213;28;20819;-74
2023/12/09 08:32:37;;;;;;;55.50;2.50;;;;;;;;;;5092791;28;21004;-74
2023/12/09 08:35:04;;;;;;;55.97;2.77;;;;;;;;;;5092979;28;20451;-73
2023/12/09 08:37:31;;;;;;;55.87;3.10;;;;;;;;;;5092930;28;20987;-74
2023/12/09 08:40:00;;;;;;;55.60;3.03;;;;;;;;;;5093193;28;20445;-74
2023/12/09 08:42:29;;;;;;;56.00;3.00;;;;;;;;;;5092847;28;20473;-73
2023/12/09 08:44:56;;;;;;;55.73;3.10;;;;;;;;;;5092647;28;20972;-73
2023/12/09 08:47:23;;;;;;;55.87;2.80;;;;;;;;;;5092909;28;20453;-73
2023/12/09 08:49:50;;;;;;;55.60;2.80;;;;;;;;;;5092608;28;20487;-73
2023/12/09 08:52:19;;;;;;;55.43;2.50;;;;;;;;;;5092262;28;20472;-73
2023/12/09 08:54:46;;;;;;;55.70;2.43;;;;;;;;;;5092602;28;20453;-72
2023/12/09 08:57:13;;;;;;;55.70;2.50;;;;;;;;;;5092566;28;20541;-73
2023/12/09 08:59:42;;;;;;;56.13;2.70;;;;;;;;;;5092713;28;20453;-73
2023/12/09 09:02:09;;;;;;;55.57;2.27;;;;;;;;;;5092160;28;20455;-73
2023/12/09 09:04:36;;;;;;;55.47;2.30;;;;;;;;;;5092100;28;20969;-73
2023/12/09 09:07:03;;;;;;;56.00;3.10;;;;;;;;;;5092659;28;20450;-73
2023/12/09 09:09:30;;;;;;;55.77;2.30;;;;;;;;;;5091728;28;20444;-73
2023/12/09 09:11:57;;;;;;;55.80;2.77;;;;;;;;;;5092127;28;20444;-73
2023/12/09 09:14:24;;;;;;;55.47;2.20;;;;;;;;;;5092329;28;20930;-72
2023/12/09 09:16:53;;;;;;;55.53;2.60;;;;;;;;;;5092062;28;20458;-73
2023/12/09 09:19:20;;;;;;;55.67;2.30;;;;;;;;;;5092043;28;20486;-72
2023/12/09 09:21:47;;;;;;;55.37;2.10;;;;;;;;;;5091833;28;20449;-72
2023/12/09 09:24:14;;;;;;;55.67;2.70;;;;;;;;;;5092031;28;20466;-73
2023/12/09 09:26:42;;;;;;;55.60;2.67;;;;;;;;;;5092136;28;20956;-73
2023/12/09 09:29:10;;;;;;;55.67;2.30;;;;;;;;;;5092337;28;20449;-73
2023/12/09 09:31:37;;;;;;;55.70;2.43;;;;;;;;;;5092165;28;20464;-73
2023/12/09 09:34:05;;;;;;;55.60;2.40;;;;;;;;;;5092220;28;20474;-73
2023/12/09 09:36:33;;;;;;;55.50;2.30;;;;;;;;;;5091860;28;20451;-73
2023/12/09 09:39:00;;;;;;;55.60;2.00;;;;;;;;;;5091813;28;20488;-73
2023/12/09 09:41:30;;;;;;;55.90;2.60;;;;;;;;;;5091765;28;20449;-73
2023/12/09 09:43:59;;;;;;;55.50;2.10;;;;;;;;;;5091937;28;20473;-73
2023/12/09 09:46:27;;;;;;;55.37;2.40;;;;;;;;;;5091663;28;20452;-73
2023/12/09 09:48:55;;;;;;;55.60;2.40;;;;;;;;;;5091937;28;20572;-73
2023/12/09 09:51:26;;;;;;;56.63;3.53;;;;;;;;;;5091619;28;20457;-73
2023/12/09 09:54:00;;;;;;;55.50;2.40;;;;;;;;;;5091657;28;20996;-73
2023/12/09 09:56:27;;;;;;;55.80;2.77;;;;;;;;;;5091524;28;20461;-73
2023/12/09 09:58:54;;;;;;;55.90;2.63;;;;;;;;;;5091309;28;20484;-73
2023/12/09 10:01:23;;;;;;;56.53;3.10;;;;;;;;;;5091654;28;20453;-73
2023/12/09 10:03:50;;;;;;;55.67;2.60;;;;;;;;;;5091465;28;20469;-73
2023/12/09 10:06:17;;;;;;;55.50;2.40;;;;;;;;;;5091172;28;20457;-73
2023/12/09 10:08:46;;;;;;;55.70;2.70;;;;;;;;;;5091283;28;20450;-73
2023/12/09 10:11:13;;;;;;;55.57;2.33;;;;;;;;;;5091085;28;20450;-73
2023/12/09 10:13:41;;;;;;;55.50;2.20;;;;;;;;;;5091171;28;20965;-73
2023/12/09 10:16:08;;;;;;;55.57;2.63;;;;;;;;;;5091198;28;20793;-73
2023/12/09 10:18:36;;;;;;;55.80;2.77;;;;;;;;;;5091201;28;20492;-73
2023/12/09 10:21:04;;;;;;;55.60;2.47;;;;;;;;;;5090899;28;20446;-73
2023/12/09 10:23:31;;;;;;;55.70;2.63;;;;;;;;;;5091405;28;20474;-73
2023/12/09 10:26:01;;;;;;;55.70;2.50;;;;;;;;;;5090798;28;20456;-73
2023/12/09 10:28:29;;;;;;;55.70;2.67;;;;;;;;;;5091443;28;20450;-73
2023/12/09 10:30:57;;;;;;;55.77;2.33;;;;;;;;;;5091150;28;20452;-73
2023/12/09 10:33:24;;;;;;;55.70;2.70;;;;;;;;;;5091068;28;20476;-73
2023/12/09 10:35:52;;;;;;;55.67;2.40;;;;;;;;;;5090267;28;20451;-73
2023/12/09 10:38:19;;;;;;;55.60;2.30;;;;;;;;;;5090940;28;20557;-73
2023/12/09 10:40:46;;;;;;;55.73;2.57;;;;;;;;;;5091315;28;20526;-73
2023/12/09 10:43:15;;;;;;;55.53;2.33;;;;;;;;;;5082867;28;20465;-73
2023/12/09 10:45:42;;;;;;;55.50;2.70;;;;;;;;;;5090944;28;20449;-73
2023/12/09 10:48:09;;;;;;;57.33;2.47;;;;;;;;;;5091023;28;20440;-73
2023/12/09 10:50:38;;;;;;;55.70;2.20;;;;;;;;;;5090827;28;20449;-73
2023/12/09 10:53:05;;;;;;;55.70;2.13;;;;;;;;;;5090381;28;20465;-73
2023/12/09 10:55:32;;;;;;;55.50;1.83;;;;;;;;;;5090893;28;20449;-71
2023/12/09 10:57:59;;;;;;;55.13;2.10;;;;;;;;;;5090878;28;20489;-72
2023/12/09 11:00:30;;;;;;;55.80;2.20;;;;;;;;;;5090610;28;20934;-72
2023/12/09 11:02:57;;;;;;;55.60;2.20;;;;;;;;;;5089003;28;20476;-72
2023/12/09 11:05:25;;;;;;;55.50;2.43;;;;;;;;;;5089477;28;20455;-72
2023/12/09 11:07:53;;;;;;;55.90;2.47;;;;;;;;;;5089369;28;20454;-72
2023/12/09 11:10:21;;;;;;;55.60;2.10;;;;;;;;;;5089303;28;20480;-72
2023/12/09 11:12:49;;;;;;;55.80;2.10;;;;;;;;;;5089640;28;21014;-72
2023/12/09 11:15:22;;;;;;;55.73;2.20;;;;;;;;;;5089943;28;20444;-72
2023/12/09 11:17:51;;;;;;;55.67;1.90;;;;;;;;;;5090541;28;20461;-73
2023/12/09 11:20:19;;;;;;;55.33;2.10;;;;;;;;;;5081664;28;20449;-70
2023/12/09 11:22:47;;;;;;;55.47;1.90;;;;;;;;;;5088192;28;20466;-72
2023/12/09 11:25:21;;;;;;;54.80;2.10;;;;;;;;;;5089800;28;20445;-72
2023/12/09 11:27:50;;;;;;;55.50;1.93;;;;;;;;;;5090519;28;20454;-71
2023/12/09 11:30:30;;;;;;;55.60;1.70;;;;;;;;;;5090422;28;20511;-71
2023/12/09 11:32:58;;;;;;;56.60;2.10;;;;;;;;;;5091264;28;20551;-71
2023/12/09 11:35:26;;;;;;;55.87;2.00;;;;;;;;;;5093794;28;20448;-71
2023/12/09 11:37:54;;;;;;;55.60;2.13;;;;;;;;;;5093856;28;20459;-72
2023/12/09 11:40:22;;;;;;;55.80;2.50;;;;;;;;;;5093299;28;20475;-72
2023/12/09 11:42:50;;;;;;;55.67;2.00;;;;;;;;;;5093453;28;20482;-72
2023/12/09 11:45:17;;;;;;;55.83;2.20;;;;;;;;;;5093803;28;20452;-72
2023/12/09 11:47:44;;;;;;;55.70;2.30;;;;;;;;;;5093520;28;20451;-71
2023/12/09 11:50:16;;;;;;;55.63;2.20;;;;;;;;;;5093614;28;20446;-72
2023/12/09 11:52:43;;;;;;;57.07;2.70;;;;;;;;;;5093506;28;20811;-72
2023/12/09 11:55:11;;;;;;;55.77;2.10;;;;;;;;;;5093747;28;20836;-72
2023/12/09 11:57:40;;;;;;;55.77;2.03;;;;;;;;;;5093486;28;20449;-72
2023/12/09 12:00:11;;;;;;;55.87;2.20;;;;;;;;;;5093057;28;21012;-72
2023/12/09 12:02:38;;;;;;;56.40;2.33;;;;;;;;;;5093643;28;20469;-72
2023/12/09 12:05:06;;;;;;;56.07;2.50;;;;;;;;;;5093034;28;20471;-73
2023/12/09 12:07:35;;;;;;;55.90;2.30;;;;;;;;;;5093211;28;20819;-71
2023/12/09 12:10:02;;;;;;;55.70;2.23;;;;;;;;;;5093322;28;20450;-72
2023/12/09 12:12:29;;;;;;;55.83;2.20;;;;;;;;;;5092856;28;20503;-72
2023/12/09 12:14:56;;;;;;;55.77;2.47;;;;;;;;;;5093253;28;20481;-72
2023/12/09 12:17:23;;;;;;;56.10;2.70;;;;;;;;;;5093010;28;20487;-71
2023/12/09 12:19:51;;;;;;;55.57;2.00;;;;;;;;;;5092845;28;20825;-73
2023/12/09 12:22:19;;;;;;;55.33;1.83;;;;;;;;;;5092666;28;20551;-73
2023/12/09 12:24:48;;;;;;;55.67;2.17;;;;;;;;;;5092717;28;20456;-73
2023/12/09 12:27:15;;;;;;;55.77;1.97;;;;;;;;;;5092985;28;20447;-73
2023/12/09 12:29:42;;;;;;;57.60;3.10;;;;;;;;;;5092945;28;20484;-73
2023/12/09 12:32:14;;;;;;;55.27;2.10;;;;;;;;;;5092373;28;20537;-73
2023/12/09 12:34:45;;;;;;;55.33;1.67;;;;;;;;;;5092451;28;20453;-73
2023/12/09 12:37:12;;;;;;;55.50;1.70;;;;;;;;;;5092518;28;20857;-73
2023/12/09 12:39:39;;;;;;;55.57;2.00;;;;;;;;;;5092842;28;20579;-73
2023/12/09 12:42:09;;;;;;;55.60;2.00;;;;;;;;;;5092433;28;20455;-72
2023/12/09 12:44:36;;;;;;;56.30;2.20;;;;;;;;;;5092828;28;20465;-72
2023/12/09 12:47:03;;;;;;;55.87;2.20;;;;;;;;;;5092941;28;20450;-72
2023/12/09 12:49:37;;;;;;;55.60;2.23;;;;;;;;;;5090614;28;20478;-73
2023/12/09 12:52:04;;;;;;;55.47;2.00;;;;;;;;;;5092546;28;20455;-73
2023/12/09 12:54:32;;;;;;;55.47;2.20;;;;;;;;;;5091804;28;20967;-73
2023/12/09 12:56:59;;;;;;;56.20;2.50;;;;;;;;;;5091758;28;20539;-73
2023/12/09 12:59:27;;;;;;;55.53;2.33;;;;;;;;;;5092579;28;20571;-73
2023/12/09 13:01:55;;;;;;;55.60;2.00;;;;;;;;;;5091270;28;20890;-72
2023/12/09 13:04:22;;;;;;;55.63;2.30;;;;;;;;;;5092179;28;20998;-72
2023/12/09 13:06:49;;;;;;;55.37;2.00;;;;;;;;;;5092722;28;20447;-72
2023/12/09 13:09:17;;;;;;;55.57;2.10;;;;;;;;;;5092417;28;20946;-72
2023/12/09 13:11:44;;;;;;;55.80;2.40;;;;;;;;;;5091719;28;20465;-72
2023/12/09 13:14:11;;;;;;;55.30;2.10;;;;;;;;;;5092466;28;20548;-72
2023/12/09 13:16:39;;;;;;;55.80;2.00;;;;;;;;;;5092181;28;20909;-73
2023/12/09 13:19:07;;;;;;;55.77;2.23;;;;;;;;;;5091998;28;21030;-74
2023/12/09 13:21:35;;;;;;;56.53;3.27;;;;;;;;;;5092286;28;20476;-73
2023/12/09 13:24:03;;;;;;;55.77;2.17;;;;;;;;;;5092181;28;20470;-74
2023/12/09 13:26:30;;;;;;;55.60;2.20;;;;;;;;;;5091871;28;20901;-73
2023/12/09 13:28:58;;;;;;;55.60;2.10;;;;;;;;;;5091949;28;21005;-74
2023/12/09 13:31:25;;;;;;;55.67;2.37;;;;;;;;;;5091778;28;20536;-74
2023/12/09 13:33:53;;;;;;;55.90;2.30;;;;;;;;;;5092016;28;20980;-73
2023/12/09 13:36:20;;;;;;;55.57;2.20;;;;;;;;;;5091697;28;20488;-74
2023/12/09 13:38:48;;;;;;;55.73;2.40;;;;;;;;;;5091996;28;20540;-74
2023/12/09 13:41:15;;;;;;;55.50;2.43;;;;;;;;;;5091759;28;20476;-74
2023/12/09 13:43:42;;;;;;;55.53;2.00;;;;;;;;;;5091660;28;20477;-74
2023/12/09 13:46:09;;;;;;;55.57;2.17;;;;;;;;;;5091304;28;20491;-74
2023/12/09 13:48:36;;;;;;;56.77;2.53;;;;;;;;;;5091934;28;20487;-73
2023/12/09 13:51:06;;;;;;;55.80;2.70;;;;;;;;;;5091901;28;20476;-73
2023/12/09 13:53:33;;;;;;;55.80;2.30;;;;;;;;;;5091453;28;20465;-73
2023/12/09 13:56:00;;;;;;;55.70;2.57;;;;;;;;;;5090501;28;20872;-73
2023/12/09 13:58:28;;;;;;;55.70;2.30;;;;;;;;;;5091376;28;20531;-73
2023/12/09 14:00:57;;;;;;;55.87;2.50;;;;;;;;;;5091290;28;20496;-73
2023/12/09 14:03:24;;;;;;;56.17;2.67;;;;;;;;;;5091170;28;20475;-74
2023/12/09 14:05:51;;;;;;;55.63;2.80;;;;;;;;;;5091154;28;20540;-73
2023/12/09 14:08:20;;;;;;;55.60;2.33;;;;;;;;;;5091268;28;20537;-73
2023/12/09 14:10:48;;;;;;;55.60;2.40;;;;;;;;;;5091385;28;20475;-73
2023/12/09 14:13:15;;;;;;;55.80;2.30;;;;;;;;;;5090562;28;20552;-74
2023/12/09 14:15:43;;;;;;;55.90;2.77;;;;;;;;;;5091207;28;20445;-74
2023/12/09 14:18:10;;;;;;;55.60;2.10;;;;;;;;;;5091232;28;20457;-74
2023/12/09 14:20:37;;;;;;;55.67;2.40;;;;;;;;;;5091194;28;20511;-73
2023/12/09 14:23:04;;;;;;;55.90;2.60;;;;;;;;;;5090925;28;20918;-73
2023/12/09 14:25:33;;;;;;;55.70;2.33;;;;;;;;;;5090917;28;20520;-74
2023/12/09 14:28:00;;;;;;;55.37;2.40;;;;;;;;;;5091382;28;20484;-74
2023/12/09 14:30:27;;;;;;;55.70;2.23;;;;;;;;;;5091044;28;20488;-74
2023/12/09 14:32:55;;;;;;;55.77;2.40;;;;;;;;;;5090163;28;20467;-74